sensor_id;sensor_type;location;lat;lon;timestamp;temperature;humidity
78514;SHT31;67814;51.976;5.810;2024-02-23T00:00:00;7.1;75.0
78514;SHT31;67814;51.976;5.810;2024-02-23T00:02:32;7.1;75.4
78514;SHT31;67814;51.976;5.810;2024-02-23T00:05:00;7.2;74.1
78514;SHT31;67814;51.976;5.810;2024-02-23T00:07:29;7.1;72.2
78514;SHT31;67814;51.976;5.810;2024-02-23T00:09:57;7.1;72.3
78514;SHT31;67814;51.976;5.810;2024-02-23T00:12:26;7.1;73.1
78514;SHT31;67814;51.976;5.810;2024-02-23T00:14:54;7.1;74.0
78514;SHT31;67814;51.976;5.810;2024-02-23T00:17:23;7.1;75.5
78514;SHT31;67814;51.976;5.810;2024-02-23T00:19:51;7.1;75.8
78514;SHT31;67814;51.976;5.810;2024-02-23T00:22:20;7.2;75.9
78514;SHT31;67814;51.976;5.810;2024-02-23T00:24:49;7.2;76.8
78514;SHT31;67814;51.976;5.810;2024-02-23T00:27:17;7.2;76.1
78514;SHT31;67814;51.976;5.810;2024-02-23T00:29:46;7.3;75.6
78514;SHT31;67814;51.976;5.810;2024-02-23T00:32:15;7.3;75.3
78514;SHT31;67814;51.976;5.810;2024-02-23T00:34:43;7.3;75.5
78514;SHT31;67814;51.976;5.810;2024-02-23T00:37:14;7.3;75.4
78514;SHT31;67814;51.976;5.810;2024-02-23T00:39:43;7.3;74.7
78514;SHT31;67814;51.976;5.810;2024-02-23T00:42:12;7.4;74.9
78514;SHT31;67814;51.976;5.810;2024-02-23T00:44:41;7.4;74.7
78514;SHT31;67814;51.976;5.810;2024-02-23T00:47:11;7.4;74.6
78514;SHT31;67814;51.976;5.810;2024-02-23T00:49:40;7.4;74.9
78514;SHT31;67814;51.976;5.810;2024-02-23T00:52:08;7.4;74.1
78514;SHT31;67814;51.976;5.810;2024-02-23T00:54:37;7.4;73.5
78514;SHT31;67814;51.976;5.810;2024-02-23T00:57:06;7.3;73.2
78514;SHT31;67814;51.976;5.810;2024-02-23T00:59:34;7.3;73.4
78514;SHT31;67814;51.976;5.810;2024-02-23T01:02:03;7.3;74.1
78514;SHT31;67814;51.976;5.810;2024-02-23T01:04:31;7.2;74.6
78514;SHT31;67814;51.976;5.810;2024-02-23T01:07:02;7.2;75.9
78514;SHT31;67814;51.976;5.810;2024-02-23T01:09:31;7.2;76.1
78514;SHT31;67814;51.976;5.810;2024-02-23T01:11:59;7.2;76.2
78514;SHT31;67814;51.976;5.810;2024-02-23T01:14:28;7.2;75.8
78514;SHT31;67814;51.976;5.810;2024-02-23T01:16:57;7.2;76.1
78514;SHT31;67814;51.976;5.810;2024-02-23T01:19:25;7.2;76.1
78514;SHT31;67814;51.976;5.810;2024-02-23T01:21:54;7.2;76.5
78514;SHT31;67814;51.976;5.810;2024-02-23T01:24:26;7.2;76.4
78514;SHT31;67814;51.976;5.810;2024-02-23T01:26:55;7.2;76.3
78514;SHT31;67814;51.976;5.810;2024-02-23T01:29:26;7.3;76.6
78514;SHT31;67814;51.976;5.810;2024-02-23T01:31:55;7.3;76.5
78514;SHT31;67814;51.976;5.810;2024-02-23T01:34:23;7.3;76.3
78514;SHT31;67814;51.976;5.810;2024-02-23T01:36:52;7.3;76.0
78514;SHT31;67814;51.976;5.810;2024-02-23T01:39:23;7.4;75.4
78514;SHT31;67814;51.976;5.810;2024-02-23T01:41:52;7.4;74.8
78514;SHT31;67814;51.976;5.810;2024-02-23T01:44:23;7.4;74.2
78514;SHT31;67814;51.976;5.810;2024-02-23T01:46:51;7.4;74.2
78514;SHT31;67814;51.976;5.810;2024-02-23T01:49:21;7.4;74.0
78514;SHT31;67814;51.976;5.810;2024-02-23T01:51:55;7.4;74.0
78514;SHT31;67814;51.976;5.810;2024-02-23T01:54:24;7.4;73.6
78514;SHT31;67814;51.976;5.810;2024-02-23T01:56:55;7.4;73.2
78514;SHT31;67814;51.976;5.810;2024-02-23T01:59:25;7.4;73.0
78514;SHT31;67814;51.976;5.810;2024-02-23T02:01:55;7.4;72.8
78514;SHT31;67814;51.976;5.810;2024-02-23T02:04:24;7.3;72.8
78514;SHT31;67814;51.976;5.810;2024-02-23T02:06:53;7.3;72.8
78514;SHT31;67814;51.976;5.810;2024-02-23T02:09:21;7.3;72.6
78514;SHT31;67814;51.976;5.810;2024-02-23T02:11:50;7.3;72.7
78514;SHT31;67814;51.976;5.810;2024-02-23T02:14:19;7.3;72.8
78514;SHT31;67814;51.976;5.810;2024-02-23T02:16:50;7.2;72.7
78514;SHT31;67814;51.976;5.810;2024-02-23T02:19:18;7.2;72.6
78514;SHT31;67814;51.976;5.810;2024-02-23T02:21:47;7.2;72.2
78514;SHT31;67814;51.976;5.810;2024-02-23T02:24:15;7.2;72.4
78514;SHT31;67814;51.976;5.810;2024-02-23T02:26:46;7.2;72.3
78514;SHT31;67814;51.976;5.810;2024-02-23T02:29:18;7.2;72.2
78514;SHT31;67814;51.976;5.810;2024-02-23T02:31:47;7.2;72.1
78514;SHT31;67814;51.976;5.810;2024-02-23T02:34:16;7.2;71.9
78514;SHT31;67814;51.976;5.810;2024-02-23T02:36:44;7.1;71.9
78514;SHT31;67814;51.976;5.810;2024-02-23T02:39:13;7.1;71.8
78514;SHT31;67814;51.976;5.810;2024-02-23T02:41:42;7.1;71.8
78514;SHT31;67814;51.976;5.810;2024-02-23T02:44:10;7.1;72.0
78514;SHT31;67814;51.976;5.810;2024-02-23T02:46:40;7.1;71.8
78514;SHT31;67814;51.976;5.810;2024-02-23T02:49:09;7.1;72.0
78514;SHT31;67814;51.976;5.810;2024-02-23T02:51:38;7.1;71.7
78514;SHT31;67814;51.976;5.810;2024-02-23T02:54:06;7.1;71.8
78514;SHT31;67814;51.976;5.810;2024-02-23T02:56:35;7.1;72.2
78514;SHT31;67814;51.976;5.810;2024-02-23T02:59:03;7.1;71.9
78514;SHT31;67814;51.976;5.810;2024-02-23T03:01:32;7.1;71.9
78514;SHT31;67814;51.976;5.810;2024-02-23T03:04:01;7.1;72.2
78514;SHT31;67814;51.976;5.810;2024-02-23T03:06:30;7.2;72.3
78514;SHT31;67814;51.976;5.810;2024-02-23T03:08:58;7.2;71.6
78514;SHT31;67814;51.976;5.810;2024-02-23T03:11:27;7.2;71.5
78514;SHT31;67814;51.976;5.810;2024-02-23T03:13:56;7.2;71.3
78514;SHT31;67814;51.976;5.810;2024-02-23T03:16:24;7.3;70.9
78514;SHT31;67814;51.976;5.810;2024-02-23T03:18:55;7.3;70.8
78514;SHT31;67814;51.976;5.810;2024-02-23T03:21:24;7.3;70.3
78514;SHT31;67814;51.976;5.810;2024-02-23T03:23:53;7.3;70.1
78514;SHT31;67814;51.976;5.810;2024-02-23T03:26:21;7.3;70.4
78514;SHT31;67814;51.976;5.810;2024-02-23T03:28:50;7.3;70.4
78514;SHT31;67814;51.976;5.810;2024-02-23T03:31:18;7.2;70.3
78514;SHT31;67814;51.976;5.810;2024-02-23T03:33:47;7.2;70.5
78514;SHT31;67814;51.976;5.810;2024-02-23T03:36:15;7.3;70.7
78514;SHT31;67814;51.976;5.810;2024-02-23T03:38:44;7.3;70.2
78514;SHT31;67814;51.976;5.810;2024-02-23T03:41:13;7.3;70.6
78514;SHT31;67814;51.976;5.810;2024-02-23T03:43:41;7.3;70.8
78514;SHT31;67814;51.976;5.810;2024-02-23T03:46:10;7.3;70.2
78514;SHT31;67814;51.976;5.810;2024-02-23T03:48:41;7.4;69.9
78514;SHT31;67814;51.976;5.810;2024-02-23T03:51:10;7.4;69.9
78514;SHT31;67814;51.976;5.810;2024-02-23T03:53:39;7.4;70.0
78514;SHT31;67814;51.976;5.810;2024-02-23T03:56:07;7.4;69.9
78514;SHT31;67814;51.976;5.810;2024-02-23T03:58:36;7.5;70.0
78514;SHT31;67814;51.976;5.810;2024-02-23T04:01:05;7.5;69.6
78514;SHT31;67814;51.976;5.810;2024-02-23T04:03:33;7.5;69.4
78514;SHT31;67814;51.976;5.810;2024-02-23T04:06:02;7.4;69.5
78514;SHT31;67814;51.976;5.810;2024-02-23T04:08:31;7.4;69.6
78514;SHT31;67814;51.976;5.810;2024-02-23T04:11:00;7.4;69.7
78514;SHT31;67814;51.976;5.810;2024-02-23T04:13:30;7.4;70.1
78514;SHT31;67814;51.976;5.810;2024-02-23T04:16:00;7.4;69.7
78514;SHT31;67814;51.976;5.810;2024-02-23T04:18:29;7.4;69.9
78514;SHT31;67814;51.976;5.810;2024-02-23T04:20:58;7.4;69.6
78514;SHT31;67814;51.976;5.810;2024-02-23T04:23:27;7.4;69.9
78514;SHT31;67814;51.976;5.810;2024-02-23T04:25:58;7.4;70.0
78514;SHT31;67814;51.976;5.810;2024-02-23T04:28:27;7.3;69.6
78514;SHT31;67814;51.976;5.810;2024-02-23T04:30:57;7.3;69.6
78514;SHT31;67814;51.976;5.810;2024-02-23T04:33:25;7.3;69.7
78514;SHT31;67814;51.976;5.810;2024-02-23T04:35:54;7.3;69.8
78514;SHT31;67814;51.976;5.810;2024-02-23T04:38:23;7.3;70.0
78514;SHT31;67814;51.976;5.810;2024-02-23T04:40:52;7.3;70.1
78514;SHT31;67814;51.976;5.810;2024-02-23T04:43:23;7.3;69.8
78514;SHT31;67814;51.976;5.810;2024-02-23T04:45:52;7.3;70.0
78514;SHT31;67814;51.976;5.810;2024-02-23T04:48:20;7.3;70.1
78514;SHT31;67814;51.976;5.810;2024-02-23T04:50:49;7.3;70.3
78514;SHT31;67814;51.976;5.810;2024-02-23T04:53:18;7.3;70.3
78514;SHT31;67814;51.976;5.810;2024-02-23T04:55:46;7.3;69.7
78514;SHT31;67814;51.976;5.810;2024-02-23T04:58:17;7.3;69.7
78514;SHT31;67814;51.976;5.810;2024-02-23T05:00:47;7.4;70.4
78514;SHT31;67814;51.976;5.810;2024-02-23T05:03:15;7.4;70.1
78514;SHT31;67814;51.976;5.810;2024-02-23T05:05:44;7.4;70.1
78514;SHT31;67814;51.976;5.810;2024-02-23T05:08:12;7.4;70.0
78514;SHT31;67814;51.976;5.810;2024-02-23T05:10:41;7.4;69.9
78514;SHT31;67814;51.976;5.810;2024-02-23T05:13:10;7.5;69.8
78514;SHT31;67814;51.976;5.810;2024-02-23T05:15:38;7.5;69.8
78514;SHT31;67814;51.976;5.810;2024-02-23T05:18:07;7.5;69.3
78514;SHT31;67814;51.976;5.810;2024-02-23T05:20:36;7.5;69.8
78514;SHT31;67814;51.976;5.810;2024-02-23T05:23:04;7.6;69.4
78514;SHT31;67814;51.976;5.810;2024-02-23T05:25:34;7.6;69.8
78514;SHT31;67814;51.976;5.810;2024-02-23T05:28:03;7.6;69.8
78514;SHT31;67814;51.976;5.810;2024-02-23T05:30:31;7.7;68.8
78514;SHT31;67814;51.976;5.810;2024-02-23T05:33:00;7.7;68.7
78514;SHT31;67814;51.976;5.810;2024-02-23T05:35:29;7.7;68.3
78514;SHT31;67814;51.976;5.810;2024-02-23T05:37:58;7.8;68.2
78514;SHT31;67814;51.976;5.810;2024-02-23T05:40:27;7.8;68.4
78514;SHT31;67814;51.976;5.810;2024-02-23T05:42:56;7.8;68.1
78514;SHT31;67814;51.976;5.810;2024-02-23T05:45:24;7.8;68.3
78514;SHT31;67814;51.976;5.810;2024-02-23T05:47:53;7.8;68.3
78514;SHT31;67814;51.976;5.810;2024-02-23T05:50:23;7.9;67.9
78514;SHT31;67814;51.976;5.810;2024-02-23T05:52:52;7.9;67.9
78514;SHT31;67814;51.976;5.810;2024-02-23T05:55:21;7.9;68.1
78514;SHT31;67814;51.976;5.810;2024-02-23T05:57:50;7.9;67.4
78514;SHT31;67814;51.976;5.810;2024-02-23T06:00:19;7.9;67.3
78514;SHT31;67814;51.976;5.810;2024-02-23T06:02:48;7.9;67.9
78514;SHT31;67814;51.976;5.810;2024-02-23T06:05:18;8.0;67.4
78514;SHT31;67814;51.976;5.810;2024-02-23T06:07:47;8.0;67.4
78514;SHT31;67814;51.976;5.810;2024-02-23T06:10:16;8.0;67.7
78514;SHT31;67814;51.976;5.810;2024-02-23T06:12:44;8.0;67.1
78514;SHT31;67814;51.976;5.810;2024-02-23T06:15:13;8.0;67.2
78514;SHT31;67814;51.976;5.810;2024-02-23T06:17:42;8.1;67.1
78514;SHT31;67814;51.976;5.810;2024-02-23T06:20:12;8.1;66.4
78514;SHT31;67814;51.976;5.810;2024-02-23T06:22:40;8.1;66.4
78514;SHT31;67814;51.976;5.810;2024-02-23T06:25:09;8.1;66.4
78514;SHT31;67814;51.976;5.810;2024-02-23T06:27:39;8.1;66.6
78514;SHT31;67814;51.976;5.810;2024-02-23T06:30:08;8.1;66.1
78514;SHT31;67814;51.976;5.810;2024-02-23T06:32:37;8.1;66.1
78514;SHT31;67814;51.976;5.810;2024-02-23T06:35:06;8.1;65.6
78514;SHT31;67814;51.976;5.810;2024-02-23T06:37:39;8.1;66.6
78514;SHT31;67814;51.976;5.810;2024-02-23T06:40:11;8.1;66.0
78514;SHT31;67814;51.976;5.810;2024-02-23T06:42:40;8.1;66.4
78514;SHT31;67814;51.976;5.810;2024-02-23T06:45:09;8.1;66.3
78514;SHT31;67814;51.976;5.810;2024-02-23T06:47:38;8.1;66.9
78514;SHT31;67814;51.976;5.810;2024-02-23T06:50:09;8.1;66.5
78514;SHT31;67814;51.976;5.810;2024-02-23T06:52:38;8.2;66.7
78514;SHT31;67814;51.976;5.810;2024-02-23T06:55:07;8.2;66.3
78514;SHT31;67814;51.976;5.810;2024-02-23T06:57:36;8.2;67.0
78514;SHT31;67814;51.976;5.810;2024-02-23T07:00:06;8.2;66.5
78514;SHT31;67814;51.976;5.810;2024-02-23T07:02:35;8.2;65.7
78514;SHT31;67814;51.976;5.810;2024-02-23T07:05:07;8.2;66.1
78514;SHT31;67814;51.976;5.810;2024-02-23T07:07:36;8.3;65.7
78514;SHT31;67814;51.976;5.810;2024-02-23T07:10:09;8.3;65.4
78514;SHT31;67814;51.976;5.810;2024-02-23T07:12:38;8.3;65.2
78514;SHT31;67814;51.976;5.810;2024-02-23T07:15:08;8.3;64.6
78514;SHT31;67814;51.976;5.810;2024-02-23T07:17:37;8.3;64.3
78514;SHT31;67814;51.976;5.810;2024-02-23T07:20:06;8.3;64.1
78514;SHT31;67814;51.976;5.810;2024-02-23T07:22:34;8.4;64.7
78514;SHT31;67814;51.976;5.810;2024-02-23T07:25:04;8.4;64.5
78514;SHT31;67814;51.976;5.810;2024-02-23T07:27:33;8.4;64.6
78514;SHT31;67814;51.976;5.810;2024-02-23T07:30:02;8.4;64.1
78514;SHT31;67814;51.976;5.810;2024-02-23T07:32:31;8.4;64.3
78514;SHT31;67814;51.976;5.810;2024-02-23T07:34:59;8.4;64.0
78514;SHT31;67814;51.976;5.810;2024-02-23T07:37:30;8.4;64.4
78514;SHT31;67814;51.976;5.810;2024-02-23T07:40:00;8.4;64.5
78514;SHT31;67814;51.976;5.810;2024-02-23T07:42:31;8.5;63.6
78514;SHT31;67814;51.976;5.810;2024-02-23T07:45:02;8.5;63.7
78514;SHT31;67814;51.976;5.810;2024-02-23T07:47:31;8.5;64.1
78514;SHT31;67814;51.976;5.810;2024-02-23T07:50:00;8.5;63.5
78514;SHT31;67814;51.976;5.810;2024-02-23T07:52:28;8.6;63.6
78514;SHT31;67814;51.976;5.810;2024-02-23T07:54:59;8.6;62.7
78514;SHT31;67814;51.976;5.810;2024-02-23T07:57:31;8.7;61.9
78514;SHT31;67814;51.976;5.810;2024-02-23T08:00:01;8.7;62.0
78514;SHT31;67814;51.976;5.810;2024-02-23T08:02:30;8.7;62.3
78514;SHT31;67814;51.976;5.810;2024-02-23T08:04:59;8.7;62.2
78514;SHT31;67814;51.976;5.810;2024-02-23T08:07:28;8.8;63.0
78514;SHT31;67814;51.976;5.810;2024-02-23T08:09:57;8.8;62.7
78514;SHT31;67814;51.976;5.810;2024-02-23T08:12:26;8.9;62.2
78514;SHT31;67814;51.976;5.810;2024-02-23T08:14:55;8.9;62.0
78514;SHT31;67814;51.976;5.810;2024-02-23T08:17:25;9.0;61.3
78514;SHT31;67814;51.976;5.810;2024-02-23T08:19:54;9.0;61.3
78514;SHT31;67814;51.976;5.810;2024-02-23T08:22:22;9.1;60.7
78514;SHT31;67814;51.976;5.810;2024-02-23T08:24:51;9.1;61.1
78514;SHT31;67814;51.976;5.810;2024-02-23T08:27:20;9.2;60.9
78514;SHT31;67814;51.976;5.810;2024-02-23T08:29:49;9.2;60.3
78514;SHT31;67814;51.976;5.810;2024-02-23T08:32:17;9.2;60.3
78514;SHT31;67814;51.976;5.810;2024-02-23T08:34:46;9.2;60.4
78514;SHT31;67814;51.976;5.810;2024-02-23T08:37:17;9.2;60.4
78514;SHT31;67814;51.976;5.810;2024-02-23T08:39:45;9.2;61.3
78514;SHT31;67814;51.976;5.810;2024-02-23T08:42:14;9.2;60.8
78514;SHT31;67814;51.976;5.810;2024-02-23T08:44:43;9.3;60.5
78514;SHT31;67814;51.976;5.810;2024-02-23T08:47:11;9.3;60.1
78514;SHT31;67814;51.976;5.810;2024-02-23T08:49:40;9.3;60.4
78514;SHT31;67814;51.976;5.810;2024-02-23T08:52:09;9.4;60.9
78514;SHT31;67814;51.976;5.810;2024-02-23T08:54:37;9.4;60.2
78514;SHT31;67814;51.976;5.810;2024-02-23T08:57:06;9.5;60.2
78514;SHT31;67814;51.976;5.810;2024-02-23T08:59:35;9.5;59.6
78514;SHT31;67814;51.976;5.810;2024-02-23T09:02:06;9.5;60.3
78514;SHT31;67814;51.976;5.810;2024-02-23T09:04:36;9.6;59.3
78514;SHT31;67814;51.976;5.810;2024-02-23T09:07:05;9.6;59.0
78514;SHT31;67814;51.976;5.810;2024-02-23T09:09:34;9.6;58.3
78514;SHT31;67814;51.976;5.810;2024-02-23T09:12:02;9.6;58.5
78514;SHT31;67814;51.976;5.810;2024-02-23T09:14:33;9.6;59.2
78514;SHT31;67814;51.976;5.810;2024-02-23T09:17:04;9.6;58.8
78514;SHT31;67814;51.976;5.810;2024-02-23T09:19:35;9.6;59.3
78514;SHT31;67814;51.976;5.810;2024-02-23T09:22:04;9.6;59.1
78514;SHT31;67814;51.976;5.810;2024-02-23T09:24:33;9.6;59.2
78514;SHT31;67814;51.976;5.810;2024-02-23T09:27:01;9.6;59.1
78514;SHT31;67814;51.976;5.810;2024-02-23T09:29:30;9.6;59.1
78514;SHT31;67814;51.976;5.810;2024-02-23T09:31:59;9.6;59.9
78514;SHT31;67814;51.976;5.810;2024-02-23T09:34:31;9.6;59.8
78514;SHT31;67814;51.976;5.810;2024-02-23T09:37:02;9.6;59.6
78514;SHT31;67814;51.976;5.810;2024-02-23T09:39:30;9.6;60.3
78514;SHT31;67814;51.976;5.810;2024-02-23T09:42:00;9.6;59.9
78514;SHT31;67814;51.976;5.810;2024-02-23T09:44:32;9.6;60.0
78514;SHT31;67814;51.976;5.810;2024-02-23T09:47:02;9.7;60.1
78514;SHT31;67814;51.976;5.810;2024-02-23T09:49:38;9.7;60.1
78514;SHT31;67814;51.976;5.810;2024-02-23T09:52:09;9.7;59.3
78514;SHT31;67814;51.976;5.810;2024-02-23T09:54:39;9.7;59.7
78514;SHT31;67814;51.976;5.810;2024-02-23T09:57:09;9.8;60.5
78514;SHT31;67814;51.976;5.810;2024-02-23T09:59:37;9.8;60.9
78514;SHT31;67814;51.976;5.810;2024-02-23T10:02:07;9.9;60.5
78514;SHT31;67814;51.976;5.810;2024-02-23T10:04:39;9.9;60.1
78514;SHT31;67814;51.976;5.810;2024-02-23T10:07:07;9.9;60.8
78514;SHT31;67814;51.976;5.810;2024-02-23T10:09:36;10.0;60.8
78514;SHT31;67814;51.976;5.810;2024-02-23T10:12:07;10.0;60.7
78514;SHT31;67814;51.976;5.810;2024-02-23T10:14:36;10.0;61.5
78514;SHT31;67814;51.976;5.810;2024-02-23T10:17:06;10.0;62.0
78514;SHT31;67814;51.976;5.810;2024-02-23T10:19:35;10.1;61.6
78514;SHT31;67814;51.976;5.810;2024-02-23T10:22:06;10.0;62.1
78514;SHT31;67814;51.976;5.810;2024-02-23T10:24:36;10.0;62.3
78514;SHT31;67814;51.976;5.810;2024-02-23T10:27:05;10.0;61.9
78514;SHT31;67814;51.976;5.810;2024-02-23T10:29:34;10.0;62.6
78514;SHT31;67814;51.976;5.810;2024-02-23T10:32:04;10.0;62.9
78514;SHT31;67814;51.976;5.810;2024-02-23T10:34:38;9.9;62.8
78514;SHT31;67814;51.976;5.810;2024-02-23T10:37:08;9.9;63.3
78514;SHT31;67814;51.976;5.810;2024-02-23T10:39:38;9.9;63.2
78514;SHT31;67814;51.976;5.810;2024-02-23T10:42:09;9.9;63.0
78514;SHT31;67814;51.976;5.810;2024-02-23T10:44:41;9.8;64.1
78514;SHT31;67814;51.976;5.810;2024-02-23T10:47:11;9.8;64.3
78514;SHT31;67814;51.976;5.810;2024-02-23T10:49:43;9.8;63.7
78514;SHT31;67814;51.976;5.810;2024-02-23T10:52:14;9.8;64.5
78514;SHT31;67814;51.976;5.810;2024-02-23T10:54:46;9.8;64.1
78514;SHT31;67814;51.976;5.810;2024-02-23T10:57:17;9.8;64.2
78514;SHT31;67814;51.976;5.810;2024-02-23T10:59:47;9.9;63.0
78514;SHT31;67814;51.976;5.810;2024-02-23T11:02:18;9.9;63.3
78514;SHT31;67814;51.976;5.810;2024-02-23T11:04:50;9.9;62.5
78514;SHT31;67814;51.976;5.810;2024-02-23T11:07:22;10.0;61.9
78514;SHT31;67814;51.976;5.810;2024-02-23T11:09:58;10.0;62.4
78514;SHT31;67814;51.976;5.810;2024-02-23T11:12:29;10.0;61.8
78514;SHT31;67814;51.976;5.810;2024-02-23T11:14:59;10.0;61.3
78514;SHT31;67814;51.976;5.810;2024-02-23T11:17:30;10.0;61.0
78514;SHT31;67814;51.976;5.810;2024-02-23T11:20:03;10.0;61.9
78514;SHT31;67814;51.976;5.810;2024-02-23T11:22:34;10.1;62.3
78514;SHT31;67814;51.976;5.810;2024-02-23T11:25:06;10.1;61.8
78514;SHT31;67814;51.976;5.810;2024-02-23T11:27:35;10.1;61.6
78514;SHT31;67814;51.976;5.810;2024-02-23T11:30:07;10.1;61.5
78514;SHT31;67814;51.976;5.810;2024-02-23T11:32:38;10.1;61.1
78514;SHT31;67814;51.976;5.810;2024-02-23T11:35:10;10.1;61.4
78514;SHT31;67814;51.976;5.810;2024-02-23T11:37:52;10.1;61.3
78514;SHT31;67814;51.976;5.810;2024-02-23T11:40:25;10.1;60.9
78514;SHT31;67814;51.976;5.810;2024-02-23T11:42:54;10.1;61.7
78514;SHT31;67814;51.976;5.810;2024-02-23T11:45:23;10.2;61.9
78514;SHT31;67814;51.976;5.810;2024-02-23T11:47:55;10.2;62.0
78514;SHT31;67814;51.976;5.810;2024-02-23T11:50:26;10.2;62.2
78514;SHT31;67814;51.976;5.810;2024-02-23T11:52:55;10.2;61.6
78514;SHT31;67814;51.976;5.810;2024-02-23T11:55:23;10.3;61.2
78514;SHT31;67814;51.976;5.810;2024-02-23T11:57:52;10.3;61.1
78514;SHT31;67814;51.976;5.810;2024-02-23T12:00:25;10.3;61.0
78514;SHT31;67814;51.976;5.810;2024-02-23T12:02:56;10.4;61.5
78514;SHT31;67814;51.976;5.810;2024-02-23T12:05:25;10.4;61.3
78514;SHT31;67814;51.976;5.810;2024-02-23T12:07:55;10.4;61.6
78514;SHT31;67814;51.976;5.810;2024-02-23T12:10:25;10.4;61.0
78514;SHT31;67814;51.976;5.810;2024-02-23T12:12:53;10.4;60.8
78514;SHT31;67814;51.976;5.810;2024-02-23T12:15:22;10.4;60.6
78514;SHT31;67814;51.976;5.810;2024-02-23T12:17:51;10.4;60.7
78514;SHT31;67814;51.976;5.810;2024-02-23T12:20:19;10.4;61.0
78514;SHT31;67814;51.976;5.810;2024-02-23T12:22:49;10.4;61.1
78514;SHT31;67814;51.976;5.810;2024-02-23T12:25:20;10.5;60.8
78514;SHT31;67814;51.976;5.810;2024-02-23T12:27:53;10.5;61.0
78514;SHT31;67814;51.976;5.810;2024-02-23T12:30:24;10.5;60.8
78514;SHT31;67814;51.976;5.810;2024-02-23T12:33:05;10.5;60.9
78514;SHT31;67814;51.976;5.810;2024-02-23T12:35:37;10.5;61.2
78514;SHT31;67814;51.976;5.810;2024-02-23T12:38:08;10.5;60.9
78514;SHT31;67814;51.976;5.810;2024-02-23T12:40:36;10.6;61.0
78514;SHT31;67814;51.976;5.810;2024-02-23T12:43:05;10.6;60.6
78514;SHT31;67814;51.976;5.810;2024-02-23T12:45:33;10.6;60.3
78514;SHT31;67814;51.976;5.810;2024-02-23T12:48:02;10.6;60.8
78514;SHT31;67814;51.976;5.810;2024-02-23T12:50:31;10.6;60.9
78514;SHT31;67814;51.976;5.810;2024-02-23T12:53:02;10.7;60.5
78514;SHT31;67814;51.976;5.810;2024-02-23T12:55:31;10.7;60.5
78514;SHT31;67814;51.976;5.810;2024-02-23T12:58:00;10.7;60.1
78514;SHT31;67814;51.976;5.810;2024-02-23T13:00:29;10.7;59.8
78514;SHT31;67814;51.976;5.810;2024-02-23T13:02:57;10.7;60.3
78514;SHT31;67814;51.976;5.810;2024-02-23T13:05:26;10.8;60.0
78514;SHT31;67814;51.976;5.810;2024-02-23T13:07:54;10.8;60.1
78514;SHT31;67814;51.976;5.810;2024-02-23T13:10:24;10.8;60.4
78514;SHT31;67814;51.976;5.810;2024-02-23T13:12:52;10.9;60.7
78514;SHT31;67814;51.976;5.810;2024-02-23T13:15:21;10.9;60.3
78514;SHT31;67814;51.976;5.810;2024-02-23T13:17:49;10.9;60.4
78514;SHT31;67814;51.976;5.810;2024-02-23T13:20:18;11.0;59.7
78514;SHT31;67814;51.976;5.810;2024-02-23T13:22:47;11.1;59.7
78514;SHT31;67814;51.976;5.810;2024-02-23T13:25:15;11.1;60.1
78514;SHT31;67814;51.976;5.810;2024-02-23T13:27:46;11.2;59.7
78514;SHT31;67814;51.976;5.810;2024-02-23T13:30:15;11.3;60.1
78514;SHT31;67814;51.976;5.810;2024-02-23T13:32:44;11.4;59.4
78514;SHT31;67814;51.976;5.810;2024-02-23T13:35:13;11.5;58.1
78514;SHT31;67814;51.976;5.810;2024-02-23T13:37:45;11.6;57.5
78514;SHT31;67814;51.976;5.810;2024-02-23T13:40:14;11.7;57.7
78514;SHT31;67814;51.976;5.810;2024-02-23T13:42:43;11.8;56.6
78514;SHT31;67814;51.976;5.810;2024-02-23T13:45:16;11.8;57.6
78514;SHT31;67814;51.976;5.810;2024-02-23T13:47:58;11.9;56.6
78514;SHT31;67814;51.976;5.810;2024-02-23T13:50:27;11.9;56.5
78514;SHT31;67814;51.976;5.810;2024-02-23T13:52:57;12.0;56.0
78514;SHT31;67814;51.976;5.810;2024-02-23T13:55:28;12.0;56.4
78514;SHT31;67814;51.976;5.810;2024-02-23T13:57:56;12.0;56.2
78514;SHT31;67814;51.976;5.810;2024-02-23T14:00:25;12.0;55.9
78514;SHT31;67814;51.976;5.810;2024-02-23T14:02:53;12.1;56.7
78514;SHT31;67814;51.976;5.810;2024-02-23T14:05:22;12.1;56.9
78514;SHT31;67814;51.976;5.810;2024-02-23T14:07:51;12.1;56.8
78514;SHT31;67814;51.976;5.810;2024-02-23T14:10:21;12.2;56.0
78514;SHT31;67814;51.976;5.810;2024-02-23T14:12:49;12.2;56.6
78514;SHT31;67814;51.976;5.810;2024-02-23T14:15:18;12.2;56.9
78514;SHT31;67814;51.976;5.810;2024-02-23T14:17:47;12.2;56.3
78514;SHT31;67814;51.976;5.810;2024-02-23T14:20:16;12.2;55.7
78514;SHT31;67814;51.976;5.810;2024-02-23T14:22:44;12.2;56.1
78514;SHT31;67814;51.976;5.810;2024-02-23T14:25:13;12.2;55.9
78514;SHT31;67814;51.976;5.810;2024-02-23T14:27:42;12.2;55.4
78514;SHT31;67814;51.976;5.810;2024-02-23T14:30:11;12.2;56.0
78514;SHT31;67814;51.976;5.810;2024-02-23T14:32:40;12.2;55.6
78514;SHT31;67814;51.976;5.810;2024-02-23T14:35:11;12.2;56.3
78514;SHT31;67814;51.976;5.810;2024-02-23T14:37:39;12.2;55.2
78514;SHT31;67814;51.976;5.810;2024-02-23T14:40:08;12.2;55.3
78514;SHT31;67814;51.976;5.810;2024-02-23T14:42:38;12.2;55.0
78514;SHT31;67814;51.976;5.810;2024-02-23T14:45:08;12.2;56.1
78514;SHT31;67814;51.976;5.810;2024-02-23T14:47:39;12.1;55.7
78514;SHT31;67814;51.976;5.810;2024-02-23T14:50:12;12.1;55.7
78514;SHT31;67814;51.976;5.810;2024-02-23T14:52:41;12.1;55.6
78514;SHT31;67814;51.976;5.810;2024-02-23T14:55:10;12.0;55.9
78514;SHT31;67814;51.976;5.810;2024-02-23T14:57:40;11.9;56.6
78514;SHT31;67814;51.976;5.810;2024-02-23T15:00:09;11.9;57.6
78514;SHT31;67814;51.976;5.810;2024-02-23T15:02:38;11.8;57.9
78514;SHT31;67814;51.976;5.810;2024-02-23T15:05:07;11.7;58.4
78514;SHT31;67814;51.976;5.810;2024-02-23T15:07:36;11.6;58.9
78514;SHT31;67814;51.976;5.810;2024-02-23T15:10:08;11.6;59.4
78514;SHT31;67814;51.976;5.810;2024-02-23T15:12:37;11.6;59.6
78514;SHT31;67814;51.976;5.810;2024-02-23T15:15:07;11.5;59.3
78514;SHT31;67814;51.976;5.810;2024-02-23T15:17:38;11.5;58.8
78514;SHT31;67814;51.976;5.810;2024-02-23T15:20:09;11.5;58.9
78514;SHT31;67814;51.976;5.810;2024-02-23T15:22:40;11.4;58.9
78514;SHT31;67814;51.976;5.810;2024-02-23T15:25:09;11.4;59.3
78514;SHT31;67814;51.976;5.810;2024-02-23T15:27:38;11.4;59.2
78514;SHT31;67814;51.976;5.810;2024-02-23T15:30:08;11.3;60.1
78514;SHT31;67814;51.976;5.810;2024-02-23T15:32:37;11.3;61.2
78514;SHT31;67814;51.976;5.810;2024-02-23T15:35:06;11.3;62.1
78514;SHT31;67814;51.976;5.810;2024-02-23T15:37:36;11.2;63.6
78514;SHT31;67814;51.976;5.810;2024-02-23T15:40:06;11.2;63.5
78514;SHT31;67814;51.976;5.810;2024-02-23T15:42:35;11.2;64.2
78514;SHT31;67814;51.976;5.810;2024-02-23T15:45:05;11.1;64.0
78514;SHT31;67814;51.976;5.810;2024-02-23T15:47:33;11.1;65.1
78514;SHT31;67814;51.976;5.810;2024-02-23T15:50:02;11.0;64.8
78514;SHT31;67814;51.976;5.810;2024-02-23T15:52:31;10.9;65.6
78514;SHT31;67814;51.976;5.810;2024-02-23T15:55:00;10.9;66.3
78514;SHT31;67814;51.976;5.810;2024-02-23T15:57:29;10.9;66.6
78514;SHT31;67814;51.976;5.810;2024-02-23T15:59:57;10.8;66.6
78514;SHT31;67814;51.976;5.810;2024-02-23T16:02:26;10.8;65.9
78514;SHT31;67814;51.976;5.810;2024-02-23T16:04:54;10.8;64.6
78514;SHT31;67814;51.976;5.810;2024-02-23T16:07:23;10.7;64.8
78514;SHT31;67814;51.976;5.810;2024-02-23T16:09:51;10.7;64.4
78514;SHT31;67814;51.976;5.810;2024-02-23T16:12:20;10.7;64.7
78514;SHT31;67814;51.976;5.810;2024-02-23T16:14:49;10.7;65.5
78514;SHT31;67814;51.976;5.810;2024-02-23T16:17:18;10.6;65.1
78514;SHT31;67814;51.976;5.810;2024-02-23T16:19:46;10.6;65.7
78514;SHT31;67814;51.976;5.810;2024-02-23T16:22:15;10.6;64.9
78514;SHT31;67814;51.976;5.810;2024-02-23T16:24:43;10.6;64.7